Terminal Aerodrome Forecast
Issued by NWS

Current Version | Previous Version | Text Only | Print | Product List | Glossary On
Versions: 1 2 3 4 5 6 7 8 9 10 11 12 13 14 15 16 17 18 19 20 21 22 23
658
FTUS43 KBIS 292333
TAFMOT
TAF
KMOT 292333Z 3000/3024 25007KT P6SM FEW090
     FM301700 09006KT P6SM BKN200
     FM301900 05006KT 5SM SHRA VCTS BKN090CB=

USA.gov is the U.S. government's official web portal to all federal, state and local government web resources and services.